Boras — TCGU — position and weather

sailwx.info

Track history (hours):
 
Tides and Currents Weather Stations Pressure Air Temp Water Temp Dewpoint Dewpoint Depression Visibility Wind Speed Wind Dir Waves Ship Positions

Boras

Last reported at 2015-Jul-02 21:17 UTC. Time now 2015-Jul-08 00:06 UTC.
Position N 33°52' E 034°46'.

Length 103 m; draft 5 m.

Type: Cargo ship. MMSI: 271000352.

Date/timePositionNaut miles runAvg speedWind from/ knotsBaromVisibWave heightAir tempDewpointWater temp
2015-Jul-02 21:17N 33°52' E 034°46'6 7.4
2015-Jul-02 20:30N 33°46' E 034°47'7 7.5
2015-Jul-02 19:33N 33°39' E 034°47'7 7.3
2015-Jul-02 18:33N 33°32' E 034°47'7 7.5
2015-Jul-02 17:33N 33°24' E 034°48'7 7.3
2015-Jul-02 16:33N 33°17' E 034°48'16 7.2
2015-Jul-02 14:24N 33°01' E 034°49'6 7.2
2015-Jul-02 13:33N 32°55' E 034°50'9 7.1
2015-Jul-02 12:17N 32°52' E 034°60'  
2015-Jun-25 09:08N 33°40' E 032°38'4 7.1
2015-Jun-25 08:32N 33°42' E 032°34'  
Track history (hours):
 
Tides and Currents Weather Stations Pressure Air Temp Water Temp Dewpoint Dewpoint Depression Visibility Wind Speed Wind Dir Waves Ship Positions

Boras

Last reported at 2015-Jul-02 21:17 UTC. Time now 2015-Jul-08 00:06 UTC.
Position N 33°52' E 034°46'.

Length 103 m; draft 5 m.

Type: Cargo ship. MMSI: 271000352.

Date/timePositionNaut miles runAvg speedWind from/ knotsBaromVisibWave heightAir tempDewpointWater temp
2015-Jul-02 21:17N 33°52' E 034°46'6 7.4
2015-Jul-02 20:30N 33°46' E 034°47'7 7.5
2015-Jul-02 19:33N 33°39' E 034°47'7 7.3
2015-Jul-02 18:33N 33°32' E 034°47'7 7.5
2015-Jul-02 17:33N 33°24' E 034°48'7 7.3
2015-Jul-02 16:33N 33°17' E 034°48'16 7.2
2015-Jul-02 14:24N 33°01' E 034°49'6 7.2
2015-Jul-02 13:33N 32°55' E 034°50'9 7.1
2015-Jul-02 12:17N 32°52' E 034°60'  
2015-Jun-25 09:08N 33°40' E 032°38'4 7.1
2015-Jun-25 08:32N 33°42' E 032°34'  

Dump ship's entire track history